KCOU/COU METAR and TAF weather

Enter ICAO airport designator
Station Type Date Time Source
KCOU METAR 2020/04/09 20:54 UTC NOAA

KCOU 092054Z 29016G31KT 10SM CLR 15/M06 A2995 RMK AO2 PK WND 27033/2024 SLP141 T01501056 58013


Station Type Date Time Source
KCOU Decoded METAR 2020/04/09 20:54 UTC NOAA

COLUMBIA REGIONAL AIRPORT, MO, United States (KCOU) 38-49N 092-13W 271M
Apr 09, 2020 - 04:54 PM EDT / 2020.04.09 2054 UTC
Wind: from the WNW (290 degrees) at 18 MPH (16 KT) gusting to 36 MPH (31 KT):0
Visibility: 10 mile(s):0
Sky conditions: clear
Temperature: 59.0 F (15.0 C)
Dew Point: 21.9 F (-5.6 C)
Relative Humidity: 23%
Pressure (altimeter): 29.95 in. Hg (1014 hPa)
Pressure tendency: 0.04 inches (1.3 hPa) lower than three hours ago
ob: KCOU 092054Z 29016G31KT 10SM CLR 15/M06 A2995 RMK AO2 PK WND 27033/2024 SLP141 T01501056 58013
cycle: 21

Station Type Date Time Source
KCOU TAF 2020/04/09 18:22 UTC NOAA

TAF KCOU 091720Z 0918/1018 30016G30KT P6SM SCT070
FM092200 30020G35KT P6SM FEW070
FM100000 32017G23KT P6SM FEW070
FM100400 34008KT P6SM SKC

Example: see airport list